.
WxDataArchive / Data Records for 2016-01-10
2016-01-09 January 2016 2016-01-11

Data Records for Sunday, 10 January 2016

Time	Temp	Chill	HIndex	Humid	Dewpt	 Wind 	HiWind	WindDir	Rain 	Barom
-----	----	-----	------	-----	-----	------	------	-------	-----	-----
00:00	45.2	45.2	45.2	96	44.1	0	0	---	0.00	29.525 
00:05	45.2	45.2	45.2	96	44.1	0	0	---	0.00	29.525 
00:10	45.1	45.1	45.1	96	44.0	0	0	---	0.00	29.525 
00:15	45.1	45.1	45.1	96	44.0	0	0	---	0.00	29.516 
00:20	45.1	45.1	45.1	96	44.0	0	0	---	0.00	29.516 
00:25	45.1	45.1	45.1	96	44.0	0	0	---	0.00	29.516 
00:30	45.1	45.1	45.1	96	44.0	0	0	---	0.00	29.509 
00:35	44.9	44.9	44.9	96	43.8	0	0	---	0.00	29.509 
00:40	44.9	44.9	44.9	96	43.8	0	0	---	0.00	29.509 
00:45	44.9	44.9	44.9	96	43.8	0	0	---	0.00	29.497 
00:50	44.8	44.8	44.8	96	43.7	0	0	---	0.00	29.497 
00:55	44.8	44.8	44.8	96	43.7	0	0	---	0.00	29.497 
01:00	44.8	44.8	44.8	96	43.7	0	0	---	0.00	29.490 
01:05	44.6	44.6	44.6	96	43.5	0	0	---	0.00	29.490 
01:10	44.6	44.6	44.6	96	43.5	0	0	---	0.01	29.490 
01:15	44.6	44.6	44.6	96	43.5	0	0	---	0.00	29.478 
01:20	44.5	44.5	44.5	96	43.4	0	0	---	0.00	29.478 
01:25	44.5	44.5	44.5	96	43.4	0	0	---	0.00	29.478 
01:30	44.3	44.3	44.3	96	43.2	0	0	---	0.00	29.468 
01:35	44.3	44.3	44.3	96	43.2	0	2	90	0.00	29.468 
01:40	44.1	44.1	44.1	96	43.0	2	5	270	0.00	29.468 
01:45	42.3	42.3	42.3	96	41.2	2	6	292	0.01	29.475 
01:50	41.1	41.1	41.1	96	40.0	2	6	292	0.00	29.475 
01:55	40.3	40.3	40.3	96	39.3	1	5	315	0.00	29.475 
02:00	39.9	39.9	39.9	96	38.9	2	7	315	0.00	29.476 
02:05	39.3	39.3	39.3	96	38.3	2	5	292	0.00	29.476 
02:10	39.1	39.1	39.1	96	38.1	2	6	315	0.01	29.476 
02:15	38.9	38.9	38.9	96	37.9	3	6	292	0.00	29.470 
02:20	38.6	38.6	38.6	96	37.6	2	6	270	0.00	29.470 
02:25	38.3	38.3	38.3	96	37.3	2	6	338	0.00	29.470 
02:30	38.0	38.0	38.0	96	37.0	2	5	292	0.00	29.471 
02:35	37.8	37.8	37.8	96	36.8	2	5	270	0.01	29.471 
02:40	37.5	37.5	37.5	96	36.5	2	6	292	0.00	29.471 
02:45	37.2	37.2	37.2	96	36.2	3	9	292	0.00	29.469 
02:50	37.0	37.0	37.0	96	36.0	3	7	292	0.00	29.469 
02:55	37.0	37.0	37.0	96	36.0	3	7	292	0.00	29.469 
03:00	36.9	36.9	36.9	96	35.9	2	6	292	0.00	29.465 
03:05	36.8	36.8	36.8	96	35.8	2	6	292	0.01	29.465 
03:10	36.8	36.8	36.8	96	35.8	1	5	292	0.00	29.465 
03:15	36.6	36.6	36.6	96	35.6	3	8	338	0.00	29.460 
03:20	36.5	36.5	36.5	96	35.5	3	9	338	0.01	29.460 
03:25	36.5	36.5	36.5	96	35.5	2	5	338	0.00	29.460 
03:30	36.5	36.5	36.5	96	35.5	2	6	315	0.00	29.455 
03:35	36.5	36.5	36.5	96	35.5	3	11	292	0.00	29.455 
03:40	36.3	36.3	36.3	96	35.3	3	6	292	0.01	29.455 
03:45	36.3	36.3	36.3	96	35.3	3	6	315	0.00	29.447 
03:50	36.2	32.9	36.2	95	34.9	4	8	292	0.00	29.447 
03:55	36.2	36.2	36.2	95	34.9	2	7	338	0.00	29.447 
04:00	36.0	36.0	36.0	95	34.7	3	8	292	0.01	29.443 
04:05	36.0	36.0	36.0	95	34.7	3	10	292	0.00	29.443 
04:10	35.9	32.6	35.9	95	34.6	4	11	338	0.00	29.443 
04:15	35.8	32.5	35.8	95	34.5	4	9	292	0.00	29.441 
04:20	35.6	32.2	35.6	95	34.3	4	9	292	0.01	29.441 
04:25	35.5	32.1	35.5	95	34.2	4	11	292	0.00	29.441 
04:30	35.3	31.0	35.3	95	34.0	5	12	292	0.00	29.441 
04:35	35.2	31.8	35.2	95	33.9	4	11	292	0.01	29.441 
04:40	35.0	35.0	35.0	95	33.7	3	7	338	0.00	29.441 
04:45	34.9	31.4	34.9	94	33.4	4	9	292	0.00	29.439 
04:50	34.7	31.2	34.7	94	33.2	4	8	338	0.00	29.439 
04:55	34.4	30.8	34.4	94	32.9	4	9	292	0.00	29.439 
05:00	34.1	34.1	34.1	94	32.6	3	7	292	0.01	29.438 
05:05	33.8	33.8	33.8	94	32.3	3	7	292	0.00	29.438 
05:10	33.5	29.8	33.5	94	32.0	4	7	292	0.00	29.438 
05:15	33.2	29.5	33.2	94	31.7	4	10	338	0.00	29.441 
05:20	33.1	29.3	33.1	94	31.6	4	12	315	0.00	29.441 
05:25	32.9	32.9	32.9	94	31.4	3	8	315	0.00	29.441 
05:30	32.8	29.0	32.8	94	31.3	4	9	292	0.00	29.443 
05:35	32.8	29.0	32.8	94	31.3	4	9	292	0.00	29.443 
05:40	32.8	32.8	32.8	94	31.3	3	9	292	0.00	29.443 
05:45	32.8	29.0	32.8	94	31.3	4	11	292	0.00	29.442 
05:50	32.7	28.9	32.7	94	31.2	4	9	292	0.00	29.442 
05:55	32.7	32.7	32.7	94	31.2	2	6	315	0.00	29.442 
06:00	32.7	28.9	32.7	94	31.2	4	7	292	0.00	29.454 
06:05	32.7	32.7	32.7	94	31.2	3	10	292	0.00	29.454 
06:10	32.7	28.9	32.7	94	31.2	4	10	292	0.00	29.454 
06:15	32.7	28.9	32.7	94	31.2	4	11	315	0.00	29.460 
06:20	32.5	32.5	32.5	94	31.0	3	9	292	0.00	29.460 
06:25	32.5	28.7	32.5	94	31.0	4	10	292	0.00	29.460 
06:30	32.4	28.5	32.4	94	30.9	4	9	315	0.00	29.469 
06:35	32.2	28.3	32.2	94	30.7	4	8	292	0.00	29.469 
06:40	32.2	32.2	32.2	94	30.7	3	7	315	0.00	29.469 
06:45	32.1	32.1	32.1	94	30.6	3	7	315	0.00	29.478 
06:50	31.9	28.0	31.9	94	30.4	4	11	292	0.00	29.478 
06:55	31.6	27.6	31.6	94	30.1	4	7	292	0.00	29.478 
07:00	31.3	27.3	31.3	94	29.8	4	10	292	0.00	29.489 
07:05	31.2	27.2	31.2	94	29.7	4	10	292	0.00	29.489 
07:10	31.0	31.0	31.0	94	29.5	3	7	292	0.00	29.489 
07:15	30.7	26.6	30.7	94	29.2	4	9	270	0.00	29.492 
07:20	30.7	30.7	30.7	94	29.2	3	9	270	0.00	29.492 
07:25	30.7	26.6	30.7	94	29.2	4	9	292	0.00	29.492 
07:30	30.9	30.9	30.9	94	29.4	2	5	315	0.00	29.507 
07:35	30.7	30.7	30.7	94	29.2	3	6	315	0.00	29.507 
07:40	30.4	25.2	30.4	94	28.9	5	12	338	0.00	29.507 
07:45	30.3	26.1	30.3	94	28.8	4	11	315	0.00	29.519 
07:50	30.0	25.8	30.0	94	28.5	4	10	292	0.00	29.519 
07:55	29.8	29.8	29.8	94	28.3	3	10	292	0.00	29.519 
08:00	29.7	29.7	29.7	94	28.2	3	10	292	0.00	29.530 
08:05	29.4	29.4	29.4	93	27.6	3	11	338	0.00	29.530 
08:10	29.4	29.4	29.4	93	27.6	3	7	292	0.00	29.530 
08:15	29.4	25.1	29.4	93	27.6	4	9	315	0.00	29.542 
08:20	29.4	29.4	29.4	93	27.6	3	7	292	0.00	29.542 
08:25	29.3	23.9	29.3	92	27.3	5	10	292	0.00	29.542 
08:30	29.1	24.7	29.1	92	27.1	4	12	315	0.00	29.560 
08:35	29.1	24.7	29.1	92	27.1	4	12	292	0.00	29.560 
08:40	29.0	23.6	29.0	91	26.7	5	13	315	0.00	29.560 
08:45	29.0	24.6	29.0	91	26.7	4	12	292	0.00	29.573 
08:50	29.1	24.7	29.1	90	26.5	4	13	292	0.00	29.573 
08:55	29.1	24.7	29.1	90	26.5	4	8	338	0.00	29.573 
09:00	29.3	29.3	29.3	89	26.5	3	8	315	0.00	29.582 
09:05	29.1	23.7	29.1	89	26.3	5	11	315	0.00	29.582 
09:10	29.1	24.7	29.1	88	26.0	4	11	292	0.00	29.582 
09:15	28.8	23.3	28.8	88	25.7	5	12	315	0.00	29.602 
09:20	28.8	28.8	28.8	87	25.4	3	8	292	0.00	29.602 
09:25	28.7	23.2	28.7	86	25.1	5	9	315	0.00	29.602 
09:30	28.5	22.1	28.5	85	24.6	6	17	292	0.00	29.617 
09:35	28.5	24.0	28.5	84	24.3	4	10	292	0.00	29.617 
09:40	28.4	22.8	28.4	83	23.9	5	11	292	0.00	29.617 
09:45	28.5	23.0	28.5	83	24.0	5	12	292	0.00	29.634 
09:50	28.5	23.0	28.5	82	23.7	5	11	292	0.00	29.634 
09:55	28.5	24.0	28.5	82	23.7	4	10	292	0.00	29.634 
10:00	28.5	21.3	28.5	81	23.4	7	15	292	0.00	29.651 
10:05	28.5	23.0	28.5	81	23.4	5	12	292	0.00	29.651 
10:10	28.5	24.0	28.5	81	23.4	4	9	292	0.00	29.651 
10:15	28.7	28.7	28.7	82	23.9	3	10	315	0.00	29.661 
10:20	28.7	24.3	28.7	82	23.9	4	11	292	0.00	29.661 
10:25	28.7	28.7	28.7	82	23.9	3	9	292	0.00	29.661 
10:30	28.7	24.3	28.7	82	23.9	4	11	292	0.00	29.668 
10:35	28.7	24.3	28.7	83	24.2	4	9	292	0.00	29.668 
10:40	28.7	28.7	28.7	83	24.2	3	9	292	0.00	29.668 
10:45	28.8	28.8	28.8	83	24.3	3	6	292	0.00	29.679 
10:50	28.8	28.8	28.8	83	24.3	3	7	292	0.00	29.679 
10:55	28.8	28.8	28.8	84	24.6	3	7	338	0.00	29.679 
11:00	28.8	28.8	28.8	84	24.6	3	6	292	0.00	29.685 
11:05	28.8	28.8	28.8	84	24.6	3	7	248	0.00	29.685 
11:10	29.0	29.0	29.0	84	24.8	2	7	292	0.00	29.685 
11:15	29.0	29.0	29.0	85	25.1	2	5	292	0.00	29.689 
11:20	29.0	29.0	29.0	85	25.1	3	9	292	0.00	29.689 
11:25	29.0	24.6	29.0	85	25.1	4	11	270	0.00	29.689 
11:30	28.7	22.3	28.7	83	24.2	6	14	270	0.00	29.698 
11:35	28.7	23.2	28.7	82	23.9	5	11	270	0.00	29.698 
11:40	28.7	24.3	28.7	82	23.9	4	10	315	0.00	29.698 
11:45	28.4	22.8	28.4	82	23.6	5	11	270	0.00	29.711 
11:50	28.1	22.5	28.1	82	23.3	5	12	270	0.00	29.711 
11:55	27.9	22.3	27.9	81	22.8	5	11	292	0.00	29.711 
12:00	27.9	23.3	27.9	81	22.8	4	14	292	0.00	29.717 
12:05	27.8	22.1	27.8	81	22.7	5	10	292	0.00	29.717 
12:10	27.6	23.0	27.6	80	22.3	4	10	270	0.00	29.717 
12:15	27.8	27.8	27.8	80	22.4	3	7	270	0.00	29.727 
12:20	27.6	21.9	27.6	79	22.0	5	10	270	0.00	29.727 
12:25	27.3	21.6	27.3	78	21.4	5	11	270	0.00	29.727 
12:30	27.0	20.3	27.0	77	20.8	6	15	270	0.00	29.732 
12:35	26.9	21.1	26.9	76	20.4	5	11	270	0.00	29.732 
12:40	26.7	20.9	26.7	75	19.9	5	11	270	0.00	29.732 
12:45	26.7	22.0	26.7	76	20.2	4	10	270	0.00	29.741 
12:50	26.7	22.0	26.7	75	19.9	4	11	270	0.00	29.741 
12:55	26.6	21.8	26.6	73	19.1	4	9	270	0.00	29.741 
13:00	26.3	20.4	26.3	75	19.5	5	11	292	0.00	29.751 
13:05	25.8	19.8	25.8	75	19.0	5	11	270	0.00	29.751 
13:10	25.7	19.7	25.7	75	18.9	5	9	270	0.00	29.751 
13:15	25.8	19.8	25.8	74	18.7	5	10	270	0.00	29.770 
13:20	25.6	20.7	25.6	77	19.4	4	9	270	0.00	29.770 
13:25	25.1	25.1	25.1	81	20.1	3	6	270	0.00	29.770 
13:30	24.4	19.3	24.4	83	20.0	4	6	270	0.00	29.783 
13:35	23.8	17.4	23.8	84	19.7	5	9	270	0.00	29.783 
13:40	23.5	17.1	23.5	84	19.4	5	9	292	0.00	29.783 
13:45	23.2	15.8	23.2	84	19.1	6	12	270	0.00	29.789 
13:50	23.2	17.9	23.2	85	19.4	4	11	270	0.00	29.789 
13:55	23.2	17.9	23.2	85	19.4	4	10	270	0.00	29.789 
14:00	23.0	16.5	23.0	84	18.9	5	11	270	0.00	29.793 
14:05	22.9	16.4	22.9	83	18.5	5	10	270	0.00	29.793 
14:10	22.9	17.6	22.9	82	18.2	4	10	270	0.00	29.793 
14:15	23.0	16.5	23.0	81	18.1	5	12	270	0.00	29.806 
14:20	22.9	17.6	22.9	80	17.7	4	9	270	0.00	29.806 
14:25	22.9	22.9	22.9	80	17.7	3	7	270	0.00	29.806 
14:30	22.7	16.2	22.7	79	17.2	5	10	270	0.00	29.814 
14:35	22.5	17.1	22.5	79	17.0	4	11	270	0.00	29.814 
14:40	22.7	17.3	22.7	79	17.2	4	7	270	0.00	29.814 
14:45	22.5	17.1	22.5	78	16.7	4	7	270	0.00	29.824 
14:50	22.4	15.8	22.4	77	16.3	5	9	270	0.00	29.824 
14:55	22.2	22.2	22.2	77	16.1	3	6	292	0.00	29.824 
15:00	22.1	16.6	22.1	77	16.0	4	8	270	0.00	29.837 
15:05	21.8	15.1	21.8	76	15.4	5	10	270	0.00	29.837 
15:10	21.6	14.9	21.6	75	14.9	5	10	270	0.00	29.837 
15:15	21.4	14.6	21.4	74	14.4	5	9	270	0.00	29.846 
15:20	21.3	15.7	21.3	75	14.6	4	6	270	0.00	29.846 
15:25	21.3	21.3	21.3	76	14.9	2	5	292	0.00	29.846 
15:30	21.3	15.7	21.3	76	14.9	4	7	270	0.00	29.858 
15:35	21.0	15.4	21.0	73	13.7	4	9	270	0.00	29.858 
15:40	21.0	15.4	21.0	73	13.7	4	7	270	0.00	29.858 
15:45	20.8	13.9	20.8	73	13.5	5	9	270	0.00	29.870 
15:50	20.6	14.9	20.6	75	14.0	4	12	270	0.00	29.870 
15:55	20.6	20.6	20.6	77	14.6	3	6	270	0.00	29.870 
16:00	20.3	20.3	20.3	78	14.6	3	7	292	0.00	29.881 
16:05	20.0	14.2	20.0	76	13.7	4	9	270	0.00	29.881 
16:10	20.0	20.0	20.0	75	13.4	3	9	270	0.00	29.881 
16:15	19.9	14.1	19.9	71	12.0	4	9	270	0.00	29.891 
16:20	19.9	14.1	19.9	69	11.4	4	10	292	0.00	29.891 
16:25	19.9	19.9	19.9	72	12.4	2	9	270	0.00	29.891 
16:30	19.7	13.9	19.7	76	13.4	4	7	270	0.00	29.905 
16:35	19.4	19.4	19.4	78	13.7	3	6	270	0.00	29.905 
16:40	19.4	19.4	19.4	79	14.0	2	4	270	0.00	29.905 
16:45	19.4	19.4	19.4	80	14.3	2	6	292	0.00	29.909 
16:50	19.2	19.2	19.2	79	13.8	2	6	270	0.00	29.909 
16:55	19.2	19.2	19.2	78	13.5	3	6	270	0.00	29.909 
17:00	19.1	19.1	19.1	77	13.1	2	6	248	0.00	29.919 
17:05	18.9	18.9	18.9	76	12.6	3	5	270	0.00	29.919 
17:10	18.9	18.9	18.9	74	12.0	3	7	270	0.00	29.919 
17:15	18.8	12.8	18.8	74	11.9	4	9	270	0.00	29.924 
17:20	18.8	18.8	18.8	74	11.9	2	6	270	0.00	29.924 
17:25	18.6	18.6	18.6	74	11.7	3	7	270	0.00	29.924 
17:30	18.6	18.6	18.6	74	11.7	3	7	270	0.00	29.932 
17:35	18.6	18.6	18.6	74	11.7	3	7	270	0.00	29.932 
17:40	18.6	18.6	18.6	74	11.7	3	6	270	0.00	29.932 
17:45	18.4	18.4	18.4	73	11.2	3	6	270	0.00	29.943 
17:50	18.3	18.3	18.3	72	10.8	3	6	248	0.00	29.943 
17:55	18.3	18.3	18.3	72	10.8	2	5	270	0.00	29.943 
18:00	18.1	18.1	18.1	72	10.6	3	6	270	0.00	29.947 
18:05	18.1	18.1	18.1	72	10.6	2	5	270	0.00	29.947 
18:10	18.1	18.1	18.1	71	10.3	3	9	248	0.00	29.947 
18:15	18.1	18.1	18.1	71	10.3	2	6	248	0.00	29.959 
18:20	18.1	18.1	18.1	71	10.3	3	8	270	0.00	29.959 
18:25	18.0	18.0	18.0	70	9.9	3	9	270	0.00	29.959 
18:30	18.0	18.0	18.0	70	9.9	2	7	270	0.00	29.965 
18:35	17.8	17.8	17.8	70	9.7	3	6	248	0.00	29.965 
18:40	17.8	17.8	17.8	70	9.7	2	5	270	0.00	29.965 
18:45	17.7	17.7	17.7	70	9.6	2	7	270	0.00	29.973 
18:50	17.5	17.5	17.5	71	9.7	2	6	270	0.00	29.973 
18:55	17.5	17.5	17.5	70	9.4	3	5	270	0.00	29.973 
19:00	17.3	17.3	17.3	69	8.9	3	5	248	0.00	29.976 
19:05	17.2	17.2	17.2	69	8.8	3	6	270	0.00	29.976 
19:10	17.2	17.2	17.2	69	8.8	3	6	270	0.00	29.976 
19:15	17.2	17.2	17.2	70	9.1	2	6	270	0.00	29.983 
19:20	17.2	17.2	17.2	71	9.4	3	7	270	0.00	29.983 
19:25	17.0	17.0	17.0	72	9.6	2	5	270	0.00	29.983 
19:30	17.0	17.0	17.0	73	9.9	1	4	270	0.00	29.991 
19:35	16.9	16.9	16.9	74	10.1	1	4	248	0.00	29.991 
19:40	16.7	16.7	16.7	74	9.9	1	5	248	0.00	29.991 
19:45	16.4	16.4	16.4	74	9.6	3	6	248	0.00	29.995 
19:50	16.1	16.1	16.1	73	9.0	2	5	270	0.00	29.995 
19:55	15.7	15.7	15.7	73	8.6	1	4	248	0.00	29.995 
20:00	15.6	15.6	15.6	73	8.5	3	6	248	0.00	30.008 
20:05	15.4	15.4	15.4	73	8.3	1	4	270	0.00	30.008 
20:10	15.2	15.2	15.2	73	8.1	3	7	270	0.00	30.008 
20:15	15.1	15.1	15.1	73	8.0	2	6	270	0.00	30.011 
20:20	15.1	15.1	15.1	73	8.0	3	6	292	0.00	30.011 
20:25	14.9	14.9	14.9	72	7.5	3	5	270	0.00	30.011 
20:30	14.8	14.8	14.8	72	7.4	3	6	270	0.00	30.020 
20:35	14.8	14.8	14.8	72	7.4	3	6	270	0.00	30.020 
20:40	14.6	14.6	14.6	72	7.2	2	6	270	0.00	30.020 
20:45	14.6	14.6	14.6	72	7.2	2	5	248	0.00	30.024 
20:50	14.6	14.6	14.6	72	7.2	2	5	270	0.00	30.024 
20:55	14.6	14.6	14.6	72	7.2	2	5	248	0.00	30.024 
21:00	14.4	14.4	14.4	72	7.1	2	5	248	0.00	30.028 
21:05	14.1	14.1	14.1	71	6.5	2	4	270	0.00	30.028 
21:10	14.0	14.0	14.0	71	6.4	2	5	270	0.00	30.028 
21:15	13.8	13.8	13.8	71	6.2	2	5	270	0.00	30.028 
21:20	13.6	13.6	13.6	71	6.0	2	6	270	0.00	30.028 
21:25	13.6	13.6	13.6	72	6.3	2	3	270	0.00	30.028 
21:30	13.5	13.5	13.5	72	6.2	2	5	270	0.00	30.030 
21:35	13.1	13.1	13.1	71	5.5	2	5	270	0.00	30.030 
21:40	12.9	12.9	12.9	71	5.3	2	5	248	0.00	30.030 
21:45	12.8	12.8	12.8	71	5.2	2	4	270	0.00	30.031 
21:50	12.9	12.9	12.9	73	5.9	1	4	270	0.00	30.031 
21:55	12.8	12.8	12.8	74	6.1	2	5	270	0.00	30.031 
22:00	12.4	12.4	12.4	73	5.4	2	5	248	0.00	30.035 
22:05	12.1	12.1	12.1	73	5.1	2	5	270	0.00	30.035 
22:10	11.6	11.6	11.6	72	4.4	3	6	270	0.00	30.035 
22:15	11.4	11.4	11.4	72	4.2	2	5	270	0.00	30.039 
22:20	11.2	11.2	11.2	73	4.3	2	5	270	0.00	30.039 
22:25	11.2	11.2	11.2	73	4.3	1	3	270	0.00	30.039 
22:30	11.4	11.4	11.4	74	4.8	1	4	270	0.00	30.037 
22:35	11.2	11.2	11.2	74	4.6	2	5	248	0.00	30.037 
22:40	11.2	11.2	11.2	74	4.6	2	6	248	0.00	30.037 
22:45	11.1	11.1	11.1	73	4.2	2	7	225	0.00	30.037 
22:50	10.9	10.9	10.9	73	4.0	2	6	292	0.00	30.037 
22:55	10.7	10.7	10.7	73	3.8	2	6	270	0.00	30.037 
23:00	10.2	10.2	10.2	72	3.0	2	5	270	0.00	30.044 
23:05	10.0	10.0	10.0	71	2.5	3	6	270	0.00	30.044 
23:10	9.7	9.7	9.7	71	2.2	3	6	270	0.00	30.044 
23:15	9.5	9.5	9.5	70	1.7	3	5	248	0.00	30.049 
23:20	9.3	9.3	9.3	71	1.8	2	5	270	0.00	30.049 
23:25	9.2	9.2	9.2	68	0.8	2	5	270	0.00	30.049 
23:30	9.0	9.0	9.0	71	1.5	2	5	270	0.00	30.056 
23:35	9.0	9.0	9.0	71	1.5	1	3	270	0.00	30.056 
23:40	9.0	9.0	9.0	72	1.8	1	4	270	0.00	30.056 
23:45	9.2	9.2	9.2	73	2.3	2	5	270	0.00	30.059 
23:50	9.2	9.2	9.2	73	2.3	2	5	270	0.00	30.059 
23:55	9.2	9.2	9.2	73	2.3	1	4	270	0.00	30.059 

CoCoRaHS
IN-AL-39
A2 Web Hosting
Creative Commons License
GoDaddy
search engine by freefind advanced

loaded 2018-11-19 19:09:52 • last modified 2010-11-18 10:43:29
Privacy PolicyDisclaimer
• wx.awcolley.com is powered by PmWiki v.2002016 •
• all content (unless otherwise noted) © 2018 A W Colley